Ana Sayfa
METAR-TAF:

METAR-TAF

Havaalanları :

Amerika Birleşik Devletleri Deniz Harp Okulu

Annapolis, Maryland, Amerika Birleşik Devletleri

Enlem: 38-59-29N, Boylam: 076-29-00W, yükseklik: 2 m

Güncel hava durumu gözlemi

Rapor saat 15:54 UTC de 16 dakika önce yapıldı.
Rüzgar kuzeybatıdan 15 kt ve 27 kt'a kadar ani rüzgarlar
Sıcaklık 12°C
Nem 38%
Basınç 1011 hPa
Görüş mesafesi: 16.1 km

METAR: KNAK 021554Z AUTO 32015G27KT 10SM 12/M02 A2986 RMK AO2 PK WND 32029/1527 SLP113 T01171022 $

Saat: 12:10 (16:10 UTC)


TAF: eksik

4.000'den fazla havaalanı için hava durumu gözlemleri ve tahminleri (METAR ve TAF raporları).

Kullanılabilir istasyonlar harita üzerinde sarı ve kırmızı noktalarla gösterilir.

İstasyonun adını görmek için fareyi noktanın üzerinde gezdirin.

Sonrasında hava gözlem ve tahminlerini görmek için tıklayın.

Haritayı değiştirmek için: yaklaştırmak için siyah artı işaretli yeşil düğmeye ve uzaklaştırmak için de eksi işaretli düğmeye hızla tıklayın; bitişik haritalar için yeşil okları kullanın.


METAR-TAF: